sensor_id;sensor_type;location;lat;lon;timestamp;P1;durP1;ratioP1;P2;durP2;ratioP2
59856;SDS011;45733;52.668;6.860;2023-07-30T00:01:57;0.70;;;0.70;;
59856;SDS011;45733;52.668;6.860;2023-07-30T00:04:22;0.73;;;0.73;;
59856;SDS011;45733;52.668;6.860;2023-07-30T00:06:48;0.70;;;0.70;;
59856;SDS011;45733;52.668;6.860;2023-07-30T00:09:14;0.70;;;0.70;;
59856;SDS011;45733;52.668;6.860;2023-07-30T00:11:40;0.70;;;0.70;;
59856;SDS011;45733;52.668;6.860;2023-07-30T00:14:05;0.70;;;0.70;;
59856;SDS011;45733;52.668;6.860;2023-07-30T00:16:31;0.70;;;0.70;;
59856;SDS011;45733;52.668;6.860;2023-07-30T00:18:57;0.77;;;0.77;;
59856;SDS011;45733;52.668;6.860;2023-07-30T00:21:22;0.75;;;0.75;;
59856;SDS011;45733;52.668;6.860;2023-07-30T00:23:48;0.70;;;0.70;;
59856;SDS011;45733;52.668;6.860;2023-07-30T00:26:14;0.73;;;0.73;;
59856;SDS011;45733;52.668;6.860;2023-07-30T00:28:40;0.65;;;0.65;;
59856;SDS011;45733;52.668;6.860;2023-07-30T00:31:05;0.70;;;0.70;;
59856;SDS011;45733;52.668;6.860;2023-07-30T00:33:31;0.73;;;0.73;;
59856;SDS011;45733;52.668;6.860;2023-07-30T00:35:57;0.73;;;0.73;;
59856;SDS011;45733;52.668;6.860;2023-07-30T00:38:22;0.75;;;0.75;;
59856;SDS011;45733;52.668;6.860;2023-07-30T00:40:48;0.70;;;0.70;;
59856;SDS011;45733;52.668;6.860;2023-07-30T00:43:14;0.70;;;0.70;;
59856;SDS011;45733;52.668;6.860;2023-07-30T00:45:40;0.75;;;0.75;;
59856;SDS011;45733;52.668;6.860;2023-07-30T00:48:09;0.70;;;0.70;;
59856;SDS011;45733;52.668;6.860;2023-07-30T00:50:35;0.80;;;0.80;;
59856;SDS011;45733;52.668;6.860;2023-07-30T00:53:01;0.80;;;0.80;;
59856;SDS011;45733;52.668;6.860;2023-07-30T00:55:27;0.80;;;0.80;;
59856;SDS011;45733;52.668;6.860;2023-07-30T00:57:53;0.80;;;0.80;;
59856;SDS011;45733;52.668;6.860;2023-07-30T01:00:18;0.80;;;0.80;;
59856;SDS011;45733;52.668;6.860;2023-07-30T01:02:45;0.80;;;0.80;;
59856;SDS011;45733;52.668;6.860;2023-07-30T01:05:10;0.80;;;0.80;;
59856;SDS011;45733;52.668;6.860;2023-07-30T01:07:36;0.80;;;0.80;;
59856;SDS011;45733;52.668;6.860;2023-07-30T01:10:02;0.80;;;0.80;;
59856;SDS011;45733;52.668;6.860;2023-07-30T01:12:29;0.85;;;0.85;;
59856;SDS011;45733;52.668;6.860;2023-07-30T01:14:56;0.80;;;0.80;;
59856;SDS011;45733;52.668;6.860;2023-07-30T01:17:23;0.85;;;0.85;;
59856;SDS011;45733;52.668;6.860;2023-07-30T01:19:49;0.80;;;0.80;;
59856;SDS011;45733;52.668;6.860;2023-07-30T01:22:15;0.82;;;0.82;;
59856;SDS011;45733;52.668;6.860;2023-07-30T01:24:41;0.80;;;0.80;;
59856;SDS011;45733;52.668;6.860;2023-07-30T01:27:07;0.80;;;0.80;;
59856;SDS011;45733;52.668;6.860;2023-07-30T01:32:02;0.80;;;0.80;;
59856;SDS011;45733;52.668;6.860;2023-07-30T01:34:31;0.70;;;0.70;;
59856;SDS011;45733;52.668;6.860;2023-07-30T01:37:02;0.70;;;0.70;;
59856;SDS011;45733;52.668;6.860;2023-07-30T01:39:29;0.80;;;0.80;;
59856;SDS011;45733;52.668;6.860;2023-07-30T01:41:57;0.77;;;0.77;;
59856;SDS011;45733;52.668;6.860;2023-07-30T01:44:22;0.80;;;0.80;;
59856;SDS011;45733;52.668;6.860;2023-07-30T01:46:48;0.80;;;0.80;;
59856;SDS011;45733;52.668;6.860;2023-07-30T01:49:14;0.80;;;0.80;;
59856;SDS011;45733;52.668;6.860;2023-07-30T01:51:40;0.80;;;0.80;;
59856;SDS011;45733;52.668;6.860;2023-07-30T01:54:05;0.80;;;0.80;;
59856;SDS011;45733;52.668;6.860;2023-07-30T01:56:31;0.80;;;0.80;;
59856;SDS011;45733;52.668;6.860;2023-07-30T01:58:56;0.80;;;0.80;;
59856;SDS011;45733;52.668;6.860;2023-07-30T02:01:22;0.80;;;0.80;;
59856;SDS011;45733;52.668;6.860;2023-07-30T02:03:48;0.80;;;0.80;;
59856;SDS011;45733;52.668;6.860;2023-07-30T02:06:14;0.80;;;0.80;;
59856;SDS011;45733;52.668;6.860;2023-07-30T02:08:39;0.80;;;0.80;;
59856;SDS011;45733;52.668;6.860;2023-07-30T02:11:05;0.80;;;0.80;;
59856;SDS011;45733;52.668;6.860;2023-07-30T02:13:31;0.90;;;0.90;;
59856;SDS011;45733;52.668;6.860;2023-07-30T02:15:56;0.80;;;0.80;;
59856;SDS011;45733;52.668;6.860;2023-07-30T02:18:22;0.80;;;0.80;;
59856;SDS011;45733;52.668;6.860;2023-07-30T02:20:48;0.90;;;0.90;;
59856;SDS011;45733;52.668;6.860;2023-07-30T02:23:14;0.82;;;0.82;;
59856;SDS011;45733;52.668;6.860;2023-07-30T02:25:43;0.80;;;0.80;;
59856;SDS011;45733;52.668;6.860;2023-07-30T02:28:09;0.88;;;0.88;;
59856;SDS011;45733;52.668;6.860;2023-07-30T02:30:35;0.90;;;0.90;;
59856;SDS011;45733;52.668;6.860;2023-07-30T02:33:01;0.90;;;0.90;;
59856;SDS011;45733;52.668;6.860;2023-07-30T02:35:26;0.90;;;0.90;;
59856;SDS011;45733;52.668;6.860;2023-07-30T02:37:52;0.82;;;0.82;;
59856;SDS011;45733;52.668;6.860;2023-07-30T02:40:18;0.90;;;0.90;;
59856;SDS011;45733;52.668;6.860;2023-07-30T02:42:44;0.85;;;0.85;;
59856;SDS011;45733;52.668;6.860;2023-07-30T02:45:09;1.00;;;1.00;;
59856;SDS011;45733;52.668;6.860;2023-07-30T02:47:35;0.90;;;0.90;;
59856;SDS011;45733;52.668;6.860;2023-07-30T02:50:04;0.90;;;0.90;;
59856;SDS011;45733;52.668;6.860;2023-07-30T02:52:31;0.85;;;0.85;;
59856;SDS011;45733;52.668;6.860;2023-07-30T02:54:57;0.80;;;0.80;;
59856;SDS011;45733;52.668;6.860;2023-07-30T02:57:22;0.85;;;0.85;;
59856;SDS011;45733;52.668;6.860;2023-07-30T02:59:48;0.90;;;0.90;;
59856;SDS011;45733;52.668;6.860;2023-07-30T03:02:14;0.95;;;0.95;;
59856;SDS011;45733;52.668;6.860;2023-07-30T03:04:39;0.90;;;0.90;;
59856;SDS011;45733;52.668;6.860;2023-07-30T03:07:05;1.00;;;1.00;;
59856;SDS011;45733;52.668;6.860;2023-07-30T03:09:31;0.98;;;0.98;;
59856;SDS011;45733;52.668;6.860;2023-07-30T03:11:57;1.00;;;1.00;;
59856;SDS011;45733;52.668;6.860;2023-07-30T03:14:24;0.90;;;0.90;;
59856;SDS011;45733;52.668;6.860;2023-07-30T03:16:49;1.00;;;1.00;;
59856;SDS011;45733;52.668;6.860;2023-07-30T03:19:15;0.90;;;0.90;;
59856;SDS011;45733;52.668;6.860;2023-07-30T03:21:41;1.00;;;1.00;;
59856;SDS011;45733;52.668;6.860;2023-07-30T03:24:07;1.08;;;1.08;;
59856;SDS011;45733;52.668;6.860;2023-07-30T03:26:33;1.00;;;1.00;;
59856;SDS011;45733;52.668;6.860;2023-07-30T03:28:59;1.00;;;1.00;;
59856;SDS011;45733;52.668;6.860;2023-07-30T03:31:25;1.10;;;1.10;;
59856;SDS011;45733;52.668;6.860;2023-07-30T03:33:50;1.10;;;1.10;;
59856;SDS011;45733;52.668;6.860;2023-07-30T03:36:16;1.10;;;1.10;;
59856;SDS011;45733;52.668;6.860;2023-07-30T03:38:42;1.10;;;1.10;;
59856;SDS011;45733;52.668;6.860;2023-07-30T03:41:08;1.10;;;1.10;;
59856;SDS011;45733;52.668;6.860;2023-07-30T03:43:35;1.15;;;1.15;;
59856;SDS011;45733;52.668;6.860;2023-07-30T03:46:01;1.10;;;1.10;;
59856;SDS011;45733;52.668;6.860;2023-07-30T03:48:27;1.10;;;1.10;;
59856;SDS011;45733;52.668;6.860;2023-07-30T03:50:56;1.10;;;1.10;;
59856;SDS011;45733;52.668;6.860;2023-07-30T03:53:22;1.08;;;1.08;;
59856;SDS011;45733;52.668;6.860;2023-07-30T03:55:47;1.20;;;1.20;;
59856;SDS011;45733;52.668;6.860;2023-07-30T03:58:13;1.15;;;1.15;;
59856;SDS011;45733;52.668;6.860;2023-07-30T04:00:39;1.30;;;1.30;;
59856;SDS011;45733;52.668;6.860;2023-07-30T04:03:05;1.20;;;1.20;;
59856;SDS011;45733;52.668;6.860;2023-07-30T04:05:31;1.20;;;1.20;;
59856;SDS011;45733;52.668;6.860;2023-07-30T04:07:57;1.20;;;1.20;;
59856;SDS011;45733;52.668;6.860;2023-07-30T04:10:23;1.27;;;1.27;;
59856;SDS011;45733;52.668;6.860;2023-07-30T04:12:48;1.20;;;1.20;;
59856;SDS011;45733;52.668;6.860;2023-07-30T04:15:14;1.27;;;1.27;;
59856;SDS011;45733;52.668;6.860;2023-07-30T04:17:41;1.20;;;1.20;;
59856;SDS011;45733;52.668;6.860;2023-07-30T04:20:07;1.25;;;1.25;;
59856;SDS011;45733;52.668;6.860;2023-07-30T04:22:35;1.27;;;1.27;;
59856;SDS011;45733;52.668;6.860;2023-07-30T04:25:01;1.17;;;1.17;;
59856;SDS011;45733;52.668;6.860;2023-07-30T04:27:26;1.23;;;1.23;;
59856;SDS011;45733;52.668;6.860;2023-07-30T04:29:52;1.20;;;1.20;;
59856;SDS011;45733;52.668;6.860;2023-07-30T04:32:18;1.17;;;1.17;;
59856;SDS011;45733;52.668;6.860;2023-07-30T04:34:44;1.05;;;1.05;;
59856;SDS011;45733;52.668;6.860;2023-07-30T04:37:09;1.13;;;1.13;;
59856;SDS011;45733;52.668;6.860;2023-07-30T04:39:35;1.10;;;1.10;;
59856;SDS011;45733;52.668;6.860;2023-07-30T04:42:01;1.08;;;1.08;;
59856;SDS011;45733;52.668;6.860;2023-07-30T04:44:27;1.10;;;1.10;;
59856;SDS011;45733;52.668;6.860;2023-07-30T04:46:53;1.10;;;1.10;;
59856;SDS011;45733;52.668;6.860;2023-07-30T04:49:19;0.90;;;0.90;;
59856;SDS011;45733;52.668;6.860;2023-07-30T04:51:44;1.00;;;1.00;;
59856;SDS011;45733;52.668;6.860;2023-07-30T04:54:10;1.00;;;1.00;;
59856;SDS011;45733;52.668;6.860;2023-07-30T04:56:36;1.00;;;1.00;;
59856;SDS011;45733;52.668;6.860;2023-07-30T04:59:02;1.02;;;1.02;;
59856;SDS011;45733;52.668;6.860;2023-07-30T05:01:28;0.93;;;0.93;;
59856;SDS011;45733;52.668;6.860;2023-07-30T05:03:54;1.00;;;1.00;;
59856;SDS011;45733;52.668;6.860;2023-07-30T05:06:20;0.93;;;0.93;;
59856;SDS011;45733;52.668;6.860;2023-07-30T05:08:46;1.00;;;1.00;;
59856;SDS011;45733;52.668;6.860;2023-07-30T05:11:12;1.00;;;1.00;;
59856;SDS011;45733;52.668;6.860;2023-07-30T05:13:37;0.90;;;0.90;;
59856;SDS011;45733;52.668;6.860;2023-07-30T05:16:03;0.90;;;0.90;;
59856;SDS011;45733;52.668;6.860;2023-07-30T05:18:29;0.90;;;0.90;;
59856;SDS011;45733;52.668;6.860;2023-07-30T05:20:55;0.95;;;0.95;;
59856;SDS011;45733;52.668;6.860;2023-07-30T05:23:20;0.90;;;0.90;;
59856;SDS011;45733;52.668;6.860;2023-07-30T05:25:47;0.90;;;0.90;;
59856;SDS011;45733;52.668;6.860;2023-07-30T05:28:12;0.90;;;0.90;;
59856;SDS011;45733;52.668;6.860;2023-07-30T05:30:38;0.90;;;0.90;;
59856;SDS011;45733;52.668;6.860;2023-07-30T05:33:04;0.80;;;0.80;;
59856;SDS011;45733;52.668;6.860;2023-07-30T05:35:30;0.90;;;0.90;;
59856;SDS011;45733;52.668;6.860;2023-07-30T05:37:56;1.10;;;1.10;;
59856;SDS011;45733;52.668;6.860;2023-07-30T05:40:22;1.00;;;1.00;;
59856;SDS011;45733;52.668;6.860;2023-07-30T05:42:48;0.90;;;0.90;;
59856;SDS011;45733;52.668;6.860;2023-07-30T05:45:13;1.10;;;1.10;;
59856;SDS011;45733;52.668;6.860;2023-07-30T05:47:39;0.90;;;0.90;;
59856;SDS011;45733;52.668;6.860;2023-07-30T05:50:06;1.00;;;1.00;;
59856;SDS011;45733;52.668;6.860;2023-07-30T05:52:32;1.08;;;1.08;;
59856;SDS011;45733;52.668;6.860;2023-07-30T05:54:58;1.02;;;1.02;;
59856;SDS011;45733;52.668;6.860;2023-07-30T05:57:24;1.00;;;1.00;;
59856;SDS011;45733;52.668;6.860;2023-07-30T05:59:50;0.80;;;0.80;;
59856;SDS011;45733;52.668;6.860;2023-07-30T06:02:16;0.80;;;0.80;;
59856;SDS011;45733;52.668;6.860;2023-07-30T06:04:42;0.80;;;0.80;;
59856;SDS011;45733;52.668;6.860;2023-07-30T06:07:08;0.90;;;0.90;;
59856;SDS011;45733;52.668;6.860;2023-07-30T06:09:34;0.95;;;0.95;;
59856;SDS011;45733;52.668;6.860;2023-07-30T06:11:59;0.70;;;0.70;;
59856;SDS011;45733;52.668;6.860;2023-07-30T06:14:26;0.85;;;0.85;;
59856;SDS011;45733;52.668;6.860;2023-07-30T06:16:52;0.90;;;0.90;;
59856;SDS011;45733;52.668;6.860;2023-07-30T06:19:18;0.80;;;0.80;;
59856;SDS011;45733;52.668;6.860;2023-07-30T06:21:44;0.80;;;0.80;;
59856;SDS011;45733;52.668;6.860;2023-07-30T06:24:10;0.80;;;0.80;;
59856;SDS011;45733;52.668;6.860;2023-07-30T06:26:36;0.90;;;0.90;;
59856;SDS011;45733;52.668;6.860;2023-07-30T06:29:02;0.82;;;0.82;;
59856;SDS011;45733;52.668;6.860;2023-07-30T06:31:27;0.70;;;0.70;;
59856;SDS011;45733;52.668;6.860;2023-07-30T06:33:53;1.08;;;1.08;;
59856;SDS011;45733;52.668;6.860;2023-07-30T06:36:19;0.80;;;0.80;;
59856;SDS011;45733;52.668;6.860;2023-07-30T06:38:44;0.80;;;0.80;;
59856;SDS011;45733;52.668;6.860;2023-07-30T06:41:10;1.00;;;1.00;;
59856;SDS011;45733;52.668;6.860;2023-07-30T06:43:36;0.90;;;0.90;;
59856;SDS011;45733;52.668;6.860;2023-07-30T06:46:01;1.23;;;1.23;;
59856;SDS011;45733;52.668;6.860;2023-07-30T06:48:27;1.00;;;1.00;;
59856;SDS011;45733;52.668;6.860;2023-07-30T06:50:56;0.80;;;0.80;;
59856;SDS011;45733;52.668;6.860;2023-07-30T06:53:22;1.20;;;1.20;;
59856;SDS011;45733;52.668;6.860;2023-07-30T06:55:48;1.30;;;1.30;;
59856;SDS011;45733;52.668;6.860;2023-07-30T06:58:13;1.20;;;1.20;;
59856;SDS011;45733;52.668;6.860;2023-07-30T07:00:39;1.13;;;1.13;;
59856;SDS011;45733;52.668;6.860;2023-07-30T07:03:05;1.55;;;1.45;;
59856;SDS011;45733;52.668;6.860;2023-07-30T07:05:30;1.50;;;1.40;;
59856;SDS011;45733;52.668;6.860;2023-07-30T07:07:56;1.50;;;1.40;;
59856;SDS011;45733;52.668;6.860;2023-07-30T07:10:25;1.10;;;1.10;;
59856;SDS011;45733;52.668;6.860;2023-07-30T07:12:51;1.10;;;1.10;;
59856;SDS011;45733;52.668;6.860;2023-07-30T07:15:20;1.30;;;1.30;;
59856;SDS011;45733;52.668;6.860;2023-07-30T07:17:57;1.30;;;1.30;;
59856;SDS011;45733;52.668;6.860;2023-07-30T07:20:23;1.63;;;1.52;;
59856;SDS011;45733;52.668;6.860;2023-07-30T07:22:49;1.60;;;1.50;;
59856;SDS011;45733;52.668;6.860;2023-07-30T07:25:14;1.80;;;1.70;;
59856;SDS011;45733;52.668;6.860;2023-07-30T07:27:43;1.88;;;1.77;;
59856;SDS011;45733;52.668;6.860;2023-07-30T07:30:18;1.80;;;1.70;;
59856;SDS011;45733;52.668;6.860;2023-07-30T07:32:44;1.90;;;1.80;;
59856;SDS011;45733;52.668;6.860;2023-07-30T07:35:10;2.08;;;1.98;;
59856;SDS011;45733;52.668;6.860;2023-07-30T07:37:36;2.00;;;1.90;;
59856;SDS011;45733;52.668;6.860;2023-07-30T07:40:05;1.95;;;1.85;;
59856;SDS011;45733;52.668;6.860;2023-07-30T07:42:35;1.83;;;1.73;;
59856;SDS011;45733;52.668;6.860;2023-07-30T07:45:02;1.73;;;1.63;;
59856;SDS011;45733;52.668;6.860;2023-07-30T07:47:28;1.73;;;1.63;;
59856;SDS011;45733;52.668;6.860;2023-07-30T07:49:54;1.95;;;1.85;;
59856;SDS011;45733;52.668;6.860;2023-07-30T07:52:19;1.75;;;1.65;;
59856;SDS011;45733;52.668;6.860;2023-07-30T07:54:45;1.95;;;1.85;;
59856;SDS011;45733;52.668;6.860;2023-07-30T07:57:11;2.03;;;1.92;;
59856;SDS011;45733;52.668;6.860;2023-07-30T07:59:37;1.85;;;1.75;;
59856;SDS011;45733;52.668;6.860;2023-07-30T08:02:03;2.03;;;1.92;;
59856;SDS011;45733;52.668;6.860;2023-07-30T08:04:29;1.75;;;1.65;;
59856;SDS011;45733;52.668;6.860;2023-07-30T08:06:54;1.88;;;1.77;;
59856;SDS011;45733;52.668;6.860;2023-07-30T08:09:24;1.67;;;1.58;;
59856;SDS011;45733;52.668;6.860;2023-07-30T08:11:50;1.88;;;1.77;;
59856;SDS011;45733;52.668;6.860;2023-07-30T08:14:16;1.85;;;1.75;;
59856;SDS011;45733;52.668;6.860;2023-07-30T08:16:41;1.85;;;1.75;;
59856;SDS011;45733;52.668;6.860;2023-07-30T08:19:07;1.75;;;1.65;;
59856;SDS011;45733;52.668;6.860;2023-07-30T08:21:33;1.75;;;1.65;;
59856;SDS011;45733;52.668;6.860;2023-07-30T08:23:58;1.70;;;1.60;;
59856;SDS011;45733;52.668;6.860;2023-07-30T08:26:24;1.60;;;1.50;;
59856;SDS011;45733;52.668;6.860;2023-07-30T08:28:50;1.73;;;1.63;;
59856;SDS011;45733;52.668;6.860;2023-07-30T08:31:15;1.58;;;1.48;;
59856;SDS011;45733;52.668;6.860;2023-07-30T08:33:41;1.58;;;1.48;;
59856;SDS011;45733;52.668;6.860;2023-07-30T08:36:07;1.63;;;1.52;;
59856;SDS011;45733;52.668;6.860;2023-07-30T08:38:32;1.60;;;1.50;;
59856;SDS011;45733;52.668;6.860;2023-07-30T08:40:58;1.55;;;1.45;;
59856;SDS011;45733;52.668;6.860;2023-07-30T08:43:23;1.52;;;1.45;;
59856;SDS011;45733;52.668;6.860;2023-07-30T08:45:49;1.50;;;1.42;;
59856;SDS011;45733;52.668;6.860;2023-07-30T08:48:15;1.38;;;1.35;;
59856;SDS011;45733;52.668;6.860;2023-07-30T08:50:41;1.45;;;1.40;;
59856;SDS011;45733;52.668;6.860;2023-07-30T08:53:07;1.23;;;1.23;;
59856;SDS011;45733;52.668;6.860;2023-07-30T08:55:33;1.23;;;1.23;;
59856;SDS011;45733;52.668;6.860;2023-07-30T08:58:03;1.25;;;1.25;;
59856;SDS011;45733;52.668;6.860;2023-07-30T09:00:36;1.30;;;1.30;;
59856;SDS011;45733;52.668;6.860;2023-07-30T09:03:05;1.27;;;1.27;;
59856;SDS011;45733;52.668;6.860;2023-07-30T09:05:32;1.15;;;1.15;;
59856;SDS011;45733;52.668;6.860;2023-07-30T09:07:58;1.20;;;1.20;;
59856;SDS011;45733;52.668;6.860;2023-07-30T09:10:24;1.10;;;1.10;;
59856;SDS011;45733;52.668;6.860;2023-07-30T09:12:54;1.05;;;1.05;;
59856;SDS011;45733;52.668;6.860;2023-07-30T09:15:32;1.15;;;1.15;;
59856;SDS011;45733;52.668;6.860;2023-07-30T09:18:00;1.13;;;1.13;;
59856;SDS011;45733;52.668;6.860;2023-07-30T09:20:26;0.88;;;0.88;;
59856;SDS011;45733;52.668;6.860;2023-07-30T09:22:52;1.05;;;1.05;;
59856;SDS011;45733;52.668;6.860;2023-07-30T09:25:21;1.02;;;1.02;;
59856;SDS011;45733;52.668;6.860;2023-07-30T09:27:52;1.15;;;1.15;;
59856;SDS011;45733;52.668;6.860;2023-07-30T09:30:24;1.08;;;1.08;;
59856;SDS011;45733;52.668;6.860;2023-07-30T09:32:52;1.25;;;1.25;;
59856;SDS011;45733;52.668;6.860;2023-07-30T09:35:19;1.08;;;1.08;;
59856;SDS011;45733;52.668;6.860;2023-07-30T09:37:45;1.23;;;1.23;;
59856;SDS011;45733;52.668;6.860;2023-07-30T09:40:12;1.08;;;1.08;;
59856;SDS011;45733;52.668;6.860;2023-07-30T09:42:42;1.17;;;1.17;;
59856;SDS011;45733;52.668;6.860;2023-07-30T09:45:17;1.17;;;1.17;;
59856;SDS011;45733;52.668;6.860;2023-07-30T09:47:47;1.08;;;1.08;;
59856;SDS011;45733;52.668;6.860;2023-07-30T09:50:14;1.08;;;1.08;;
59856;SDS011;45733;52.668;6.860;2023-07-30T09:52:41;1.17;;;1.17;;
59856;SDS011;45733;52.668;6.860;2023-07-30T09:55:08;1.17;;;1.17;;
59856;SDS011;45733;52.668;6.860;2023-07-30T09:57:34;1.25;;;1.25;;
59856;SDS011;45733;52.668;6.860;2023-07-30T10:00:00;1.13;;;1.13;;
59856;SDS011;45733;52.668;6.860;2023-07-30T10:02:26;1.40;;;1.35;;
59856;SDS011;45733;52.668;6.860;2023-07-30T10:04:56;1.52;;;1.45;;
59856;SDS011;45733;52.668;6.860;2023-07-30T10:07:25;1.48;;;1.42;;
59856;SDS011;45733;52.668;6.860;2023-07-30T10:09:54;1.17;;;1.17;;
59856;SDS011;45733;52.668;6.860;2023-07-30T10:12:32;1.25;;;1.25;;
59856;SDS011;45733;52.668;6.860;2023-07-30T10:15:00;1.30;;;1.30;;
59856;SDS011;45733;52.668;6.860;2023-07-30T10:17:26;1.15;;;1.15;;
59856;SDS011;45733;52.668;6.860;2023-07-30T10:19:53;1.20;;;1.20;;
59856;SDS011;45733;52.668;6.860;2023-07-30T10:22:20;1.08;;;1.08;;
59856;SDS011;45733;52.668;6.860;2023-07-30T10:24:58;1.15;;;1.15;;
59856;SDS011;45733;52.668;6.860;2023-07-30T10:27:50;1.15;;;1.15;;
59856;SDS011;45733;52.668;6.860;2023-07-30T10:30:16;1.17;;;1.17;;
59856;SDS011;45733;52.668;6.860;2023-07-30T10:38:21;1.10;;;1.10;;
59856;SDS011;45733;52.668;6.860;2023-07-30T10:43:28;1.02;;;1.02;;
59856;SDS011;45733;52.668;6.860;2023-07-30T10:45:55;1.02;;;1.02;;
59856;SDS011;45733;52.668;6.860;2023-07-30T10:48:34;0.95;;;0.95;;
59856;SDS011;45733;52.668;6.860;2023-07-30T10:51:02;1.05;;;1.05;;
59856;SDS011;45733;52.668;6.860;2023-07-30T10:53:29;1.00;;;1.00;;
59856;SDS011;45733;52.668;6.860;2023-07-30T10:55:57;1.10;;;1.10;;
59856;SDS011;45733;52.668;6.860;2023-07-30T10:58:26;1.00;;;1.00;;
59856;SDS011;45733;52.668;6.860;2023-07-30T11:00:52;1.10;;;1.10;;
59856;SDS011;45733;52.668;6.860;2023-07-30T11:03:18;1.15;;;1.15;;
59856;SDS011;45733;52.668;6.860;2023-07-30T11:05:47;0.77;;;0.77;;
59856;SDS011;45733;52.668;6.860;2023-07-30T11:08:13;1.05;;;1.05;;
59856;SDS011;45733;52.668;6.860;2023-07-30T11:10:46;1.05;;;1.05;;
59856;SDS011;45733;52.668;6.860;2023-07-30T11:13:13;1.02;;;1.02;;
59856;SDS011;45733;52.668;6.860;2023-07-30T11:15:43;1.00;;;1.00;;
59856;SDS011;45733;52.668;6.860;2023-07-30T11:18:09;1.05;;;1.05;;
59856;SDS011;45733;52.668;6.860;2023-07-30T11:20:36;1.08;;;1.08;;
59856;SDS011;45733;52.668;6.860;2023-07-30T11:23:02;1.10;;;1.10;;
59856;SDS011;45733;52.668;6.860;2023-07-30T11:25:28;1.23;;;1.17;;
59856;SDS011;45733;52.668;6.860;2023-07-30T11:27:53;0.88;;;0.88;;
59856;SDS011;45733;52.668;6.860;2023-07-30T11:30:19;0.75;;;0.75;;
59856;SDS011;45733;52.668;6.860;2023-07-30T11:32:45;0.73;;;0.73;;
59856;SDS011;45733;52.668;6.860;2023-07-30T11:35:11;0.80;;;0.80;;
59856;SDS011;45733;52.668;6.860;2023-07-30T11:37:39;0.75;;;0.75;;
59856;SDS011;45733;52.668;6.860;2023-07-30T11:40:08;0.80;;;0.80;;
59856;SDS011;45733;52.668;6.860;2023-07-30T11:42:38;0.80;;;0.80;;
59856;SDS011;45733;52.668;6.860;2023-07-30T11:45:20;0.70;;;0.70;;
59856;SDS011;45733;52.668;6.860;2023-07-30T11:47:47;0.65;;;0.65;;
59856;SDS011;45733;52.668;6.860;2023-07-30T11:50:13;0.65;;;0.65;;
59856;SDS011;45733;52.668;6.860;2023-07-30T11:52:55;0.60;;;0.60;;
59856;SDS011;45733;52.668;6.860;2023-07-30T11:55:22;0.60;;;0.60;;
59856;SDS011;45733;52.668;6.860;2023-07-30T11:57:49;0.50;;;0.50;;
59856;SDS011;45733;52.668;6.860;2023-07-30T12:00:16;0.60;;;0.60;;
59856;SDS011;45733;52.668;6.860;2023-07-30T12:02:45;0.77;;;0.77;;
59856;SDS011;45733;52.668;6.860;2023-07-30T12:05:11;0.80;;;0.80;;
59856;SDS011;45733;52.668;6.860;2023-07-30T12:07:39;0.90;;;0.90;;
59856;SDS011;45733;52.668;6.860;2023-07-30T12:10:09;1.00;;;1.00;;
59856;SDS011;45733;52.668;6.860;2023-07-30T12:12:36;1.00;;;1.00;;
59856;SDS011;45733;52.668;6.860;2023-07-30T12:15:02;0.90;;;0.90;;
59856;SDS011;45733;52.668;6.860;2023-07-30T12:17:37;1.00;;;1.00;;
59856;SDS011;45733;52.668;6.860;2023-07-30T12:20:03;1.00;;;1.00;;
59856;SDS011;45733;52.668;6.860;2023-07-30T12:22:32;0.70;;;0.70;;
59856;SDS011;45733;52.668;6.860;2023-07-30T12:25:00;0.45;;;0.45;;
59856;SDS011;45733;52.668;6.860;2023-07-30T12:27:27;0.60;;;0.60;;
59856;SDS011;45733;52.668;6.860;2023-07-30T12:29:52;0.30;;;0.30;;
59856;SDS011;45733;52.668;6.860;2023-07-30T12:32:18;0.68;;;0.68;;
59856;SDS011;45733;52.668;6.860;2023-07-30T12:34:44;0.43;;;0.43;;
59856;SDS011;45733;52.668;6.860;2023-07-30T12:37:09;0.50;;;0.50;;
59856;SDS011;45733;52.668;6.860;2023-07-30T12:39:35;0.40;;;0.40;;
59856;SDS011;45733;52.668;6.860;2023-07-30T12:42:01;0.57;;;0.57;;
59856;SDS011;45733;52.668;6.860;2023-07-30T12:44:26;0.50;;;0.50;;
59856;SDS011;45733;52.668;6.860;2023-07-30T12:46:52;0.68;;;0.68;;
59856;SDS011;45733;52.668;6.860;2023-07-30T12:49:18;0.60;;;0.60;;
59856;SDS011;45733;52.668;6.860;2023-07-30T12:51:44;0.50;;;0.50;;
59856;SDS011;45733;52.668;6.860;2023-07-30T12:54:09;0.60;;;0.60;;
59856;SDS011;45733;52.668;6.860;2023-07-30T12:56:35;0.60;;;0.60;;
59856;SDS011;45733;52.668;6.860;2023-07-30T12:59:01;0.50;;;0.50;;
59856;SDS011;45733;52.668;6.860;2023-07-30T13:01:27;0.60;;;0.60;;
59856;SDS011;45733;52.668;6.860;2023-07-30T13:03:53;0.70;;;0.70;;
59856;SDS011;45733;52.668;6.860;2023-07-30T13:06:22;0.73;;;0.73;;
59856;SDS011;45733;52.668;6.860;2023-07-30T13:08:48;0.75;;;0.75;;
59856;SDS011;45733;52.668;6.860;2023-07-30T13:11:14;0.60;;;0.60;;
59856;SDS011;45733;52.668;6.860;2023-07-30T13:13:39;0.68;;;0.68;;
59856;SDS011;45733;52.668;6.860;2023-07-30T13:16:05;0.57;;;0.57;;
59856;SDS011;45733;52.668;6.860;2023-07-30T13:18:31;0.50;;;0.50;;
59856;SDS011;45733;52.668;6.860;2023-07-30T13:20:59;0.50;;;0.50;;
59856;SDS011;45733;52.668;6.860;2023-07-30T13:23:28;0.50;;;0.50;;
59856;SDS011;45733;52.668;6.860;2023-07-30T13:25:55;0.45;;;0.45;;
59856;SDS011;45733;52.668;6.860;2023-07-30T13:28:21;0.50;;;0.50;;
59856;SDS011;45733;52.668;6.860;2023-07-30T13:30:46;0.50;;;0.50;;
59856;SDS011;45733;52.668;6.860;2023-07-30T13:33:12;0.60;;;0.60;;
59856;SDS011;45733;52.668;6.860;2023-07-30T13:35:38;0.50;;;0.50;;
59856;SDS011;45733;52.668;6.860;2023-07-30T13:38:03;0.50;;;0.50;;
59856;SDS011;45733;52.668;6.860;2023-07-30T13:40:29;0.50;;;0.50;;
59856;SDS011;45733;52.668;6.860;2023-07-30T13:42:55;0.50;;;0.50;;
59856;SDS011;45733;52.668;6.860;2023-07-30T13:45:20;0.40;;;0.40;;
59856;SDS011;45733;52.668;6.860;2023-07-30T13:47:46;0.47;;;0.47;;
59856;SDS011;45733;52.668;6.860;2023-07-30T13:50:12;0.40;;;0.40;;
59856;SDS011;45733;52.668;6.860;2023-07-30T13:52:40;0.40;;;0.40;;
59856;SDS011;45733;52.668;6.860;2023-07-30T13:55:08;0.40;;;0.40;;
59856;SDS011;45733;52.668;6.860;2023-07-30T13:57:34;0.40;;;0.40;;
59856;SDS011;45733;52.668;6.860;2023-07-30T14:00:00;0.40;;;0.40;;
59856;SDS011;45733;52.668;6.860;2023-07-30T14:02:28;0.40;;;0.40;;
59856;SDS011;45733;52.668;6.860;2023-07-30T14:04:54;0.50;;;0.50;;
59856;SDS011;45733;52.668;6.860;2023-07-30T14:07:20;0.50;;;0.50;;
59856;SDS011;45733;52.668;6.860;2023-07-30T14:09:45;0.45;;;0.45;;
59856;SDS011;45733;52.668;6.860;2023-07-30T14:12:11;0.50;;;0.50;;
59856;SDS011;45733;52.668;6.860;2023-07-30T14:14:37;0.50;;;0.50;;
59856;SDS011;45733;52.668;6.860;2023-07-30T14:17:02;0.40;;;0.40;;
59856;SDS011;45733;52.668;6.860;2023-07-30T14:19:32;0.50;;;0.50;;
59856;SDS011;45733;52.668;6.860;2023-07-30T14:21:58;0.50;;;0.50;;
59856;SDS011;45733;52.668;6.860;2023-07-30T14:24:23;0.50;;;0.50;;
59856;SDS011;45733;52.668;6.860;2023-07-30T14:26:49;0.50;;;0.50;;
59856;SDS011;45733;52.668;6.860;2023-07-30T14:29:15;0.50;;;0.50;;
59856;SDS011;45733;52.668;6.860;2023-07-30T14:31:40;0.40;;;0.40;;
59856;SDS011;45733;52.668;6.860;2023-07-30T14:34:06;0.40;;;0.40;;
59856;SDS011;45733;52.668;6.860;2023-07-30T14:36:32;0.40;;;0.40;;
59856;SDS011;45733;52.668;6.860;2023-07-30T14:38:57;0.40;;;0.40;;
59856;SDS011;45733;52.668;6.860;2023-07-30T14:41:23;0.43;;;0.43;;
59856;SDS011;45733;52.668;6.860;2023-07-30T14:43:49;0.50;;;0.50;;
59856;SDS011;45733;52.668;6.860;2023-07-30T14:46:14;0.50;;;0.50;;
59856;SDS011;45733;52.668;6.860;2023-07-30T14:48:41;0.50;;;0.50;;
59856;SDS011;45733;52.668;6.860;2023-07-30T14:51:10;0.50;;;0.50;;
59856;SDS011;45733;52.668;6.860;2023-07-30T14:53:36;0.50;;;0.50;;
59856;SDS011;45733;52.668;6.860;2023-07-30T14:56:02;0.50;;;0.50;;